Time;durP1;ratioP1;P1;durP2;ratioP2;P2;SDS_P1;SDS_P2;PMS_P1;PMS_P2;Temp;Humidity;BMP_temperature;BMP_pressure;BME280_temperature;BME280_humidity;BME280_pressure;Samples;Min_cycle;Max_cycle;Signal;HPM_P1;HPM_P2
2023/03/18 00:00:37;;;;;;;15.98;9.68;;;;;;;11.92;75.50;100630.78;5024331;28;20049;-58
2023/03/18 00:03:03;;;;;;;21.55;10.18;;;;;;;11.92;75.59;100625.47;5042528;28;20029;-58
2023/03/18 00:05:29;;;;;;;17.17;9.50;;;;;;;11.92;75.74;100627.31;5039247;28;20025;-58
2023/03/18 00:07:55;;;;;;;20.30;10.43;;;;;;;11.89;76.06;100625.81;5034696;28;20026;-58
2023/03/18 00:10:20;;;;;;;18.65;9.73;;;;;;;11.90;75.86;100632.78;5035357;28;20044;-58
2023/03/18 00:12:46;;;;;;;18.98;9.40;;;;;;;11.90;76.06;100635.44;5026640;28;20378;-58
2023/03/18 00:15:14;;;;;;;18.42;9.10;;;;;;;11.86;75.84;100636.81;5033414;28;20021;-59
2023/03/18 00:17:41;;;;;;;16.95;9.32;;;;;;;11.85;76.39;100637.81;5024969;28;20060;-58
2023/03/18 00:20:08;;;;;;;17.90;9.20;;;;;;;11.81;76.22;100645.31;5030539;28;20116;-58
2023/03/18 00:22:34;;;;;;;17.80;9.23;;;;;;;11.79;77.04;100646.50;5032080;28;20029;-58
2023/03/18 00:25:00;;;;;;;17.35;9.05;;;;;;;11.75;76.80;100632.69;5023263;28;20041;-58
2023/03/18 00:27:26;;;;;;;17.95;9.80;;;;;;;11.76;77.11;100644.16;5039179;28;20041;-58
2023/03/18 00:29:52;;;;;;;19.33;10.18;;;;;;;11.77;77.21;100643.16;5024276;28;20029;-58
2023/03/18 00:32:17;;;;;;;17.08;9.90;;;;;;;11.74;77.16;100656.81;5031689;28;20048;-58
2023/03/18 00:34:42;;;;;;;17.90;9.38;;;;;;;11.67;77.38;100649.53;5038297;28;20029;-58
2023/03/18 00:37:09;;;;;;;16.05;9.25;;;;;;;11.68;77.33;100661.81;5027235;28;20017;-59
2023/03/18 00:39:35;;;;;;;18.23;9.45;;;;;;;11.68;77.69;100656.50;5036932;28;20025;-58
2023/03/18 00:42:09;;;;;;;15.73;9.20;;;;;;;11.67;77.58;100660.16;5021240;28;20108;-58
2023/03/18 00:44:34;;;;;;;19.58;10.05;;;;;;;11.63;77.96;100656.19;5037961;28;20493;-58
2023/03/18 00:47:00;;;;;;;17.92;9.88;;;;;;;11.66;78.36;100663.81;5035176;28;20096;-58
2023/03/18 00:49:25;;;;;;;17.33;9.65;;;;;;;11.64;78.33;100657.84;5030705;28;20127;-58
2023/03/18 00:51:50;;;;;;;17.98;9.68;;;;;;;11.64;78.63;100670.31;5040812;28;20087;-58
2023/03/18 00:54:18;;;;;;;17.30;9.73;;;;;;;11.63;78.09;100664.16;5029452;28;20120;-58
2023/03/18 00:56:44;;;;;;;17.90;9.10;;;;;;;11.61;78.56;100671.47;5031252;28;20468;-58
2023/03/18 00:59:09;;;;;;;16.80;9.18;;;;;;;11.59;78.92;100673.44;5027043;28;20049;-59
2023/03/18 01:01:36;;;;;;;15.43;8.70;;;;;;;11.55;79.16;100672.97;5027474;28;20107;-59
2023/03/18 01:04:03;;;;;;;17.10;9.13;;;;;;;11.56;79.41;100663.19;5023681;28;20112;-59
2023/03/18 01:06:31;;;;;;;18.10;9.02;;;;;;;11.54;79.95;100667.81;5033997;28;20020;-58
2023/03/18 01:09:00;;;;;;;20.25;9.45;;;;;;;11.53;80.38;100668.81;5024816;28;20435;-58
2023/03/18 01:11:26;;;;;;;16.45;9.13;;;;;;;11.54;80.63;100665.16;5031657;28;20265;-58
2023/03/18 01:13:52;;;;;;;21.00;9.00;;;;;;;11.52;80.55;100659.22;5027731;28;20039;-57
2023/03/18 01:16:18;;;;;;;19.52;9.23;;;;;;;11.52;80.65;100656.56;5035054;28;20025;-58
2023/03/18 01:18:44;;;;;;;20.15;9.00;;;;;;;11.51;81.63;100660.22;5027665;28;20476;-58
2023/03/18 01:21:10;;;;;;;22.80;9.45;;;;;;;11.50;81.87;100658.56;5028479;28;20103;-58
2023/03/18 01:23:36;;;;;;;19.58;9.65;;;;;;;11.48;82.51;100655.22;5035973;28;20476;-58
2023/03/18 01:26:02;;;;;;;19.60;9.30;;;;;;;11.46;83.76;100658.09;5040953;28;20030;-60
2023/03/18 01:28:28;;;;;;;21.90;9.43;;;;;;;11.41;84.81;100650.63;5026461;28;20523;-58
2023/03/18 01:30:54;;;;;;;20.75;10.10;;;;;;;11.41;85.79;100658.56;5025626;28;20025;-58
2023/03/18 01:33:20;;;;;;;20.08;9.85;;;;;;;11.36;86.78;100663.59;5039552;28;20110;-58
2023/03/18 01:35:55;;;;;;;23.15;10.60;;;;;;;11.34;88.00;100660.25;5031470;28;20752;-58
2023/03/18 01:38:22;;;;;;;21.00;10.98;;;;;;;11.29;89.08;100657.28;5030679;28;20029;-58
2023/03/18 01:40:48;;;;;;;21.75;11.15;;;;;;;11.23;89.51;100652.66;5026523;28;20018;-58
2023/03/18 01:43:32;;;;;;;21.40;11.50;;;;;;;11.19;90.85;100651.38;5024022;28;20037;-59
2023/03/18 01:46:00;;;;;;;20.67;11.55;;;;;;;11.16;91.47;100658.66;5030690;28;20106;-59
2023/03/18 01:48:35;;;;;;;24.48;12.02;;;;;;;11.13;92.41;100661.66;5038182;28;20501;-58
2023/03/18 01:51:05;;;;;;;22.13;12.13;;;;;;;11.10;94.13;100659.34;5021412;28;20034;-58
2023/03/18 01:53:35;;;;;;;27.65;12.77;;;;;;;11.05;94.59;100660.84;5030955;28;20052;-58
2023/03/18 01:56:02;;;;;;;21.20;12.60;;;;;;;11.00;95.57;100662.19;5038380;28;20033;-58
2023/03/18 01:58:36;;;;;;;26.80;13.25;;;;;;;10.97;97.24;100664.34;5027420;28;20029;-58
2023/03/18 02:01:29;;;;;;;24.42;12.88;;;;;;;10.96;97.80;100662.69;5013551;28;20026;-58
2023/03/18 02:03:55;;;;;;;;;;;;;;;11.03;94.26;100661.00;5027305;28;20025;-58
2023/03/18 02:06:22;;;;;;;26.13;13.75;;;;;;;10.90;97.52;100659.72;5023547;28;20485;-58
2023/03/18 02:08:48;;;;;;;25.95;13.77;;;;;;;10.81;98.24;100650.09;5034385;28;20431;-58
2023/03/18 02:11:13;;;;;;;25.00;13.77;;;;;;;10.80;100.00;100659.06;5030271;28;20030;-58
2023/03/18 02:13:42;;;;;;;26.17;13.48;;;;;;;10.79;100.00;100657.41;5029273;28;20378;-58
2023/03/18 02:16:13;;;;;;;26.00;14.27;;;;;;;10.71;100.00;100649.47;5024026;28;20451;-58
2023/03/18 02:18:49;;;;;;;26.50;14.43;;;;;;;10.77;100.00;100660.22;5019941;28;20116;-58
2023/03/18 02:21:30;;;;;;;24.20;15.25;;;;;;;10.77;100.00;100659.41;5036091;28;20036;-59
2023/03/18 02:24:08;;;;;;;24.40;14.02;;;;;;;10.77;100.00;100664.69;5027675;28;20084;-58
2023/03/18 02:26:53;;;;;;;25.80;15.15;;;;;;;10.74;100.00;100665.03;5014867;28;20049;-58
2023/03/18 02:29:20;;;;;;;26.52;14.95;;;;;;;10.75;100.00;100669.31;5026391;28;20425;-58
2023/03/18 02:31:46;;;;;;;24.70;15.38;;;;;;;10.72;100.00;100670.50;5027760;28;20092;-58
2023/03/18 02:34:13;;;;;;;27.33;15.60;;;;;;;10.70;100.00;100674.34;5029703;28;20112;-57
2023/03/18 02:36:40;;;;;;;25.67;15.38;;;;;;;10.69;100.00;100675.31;5031967;28;20473;-58
2023/03/18 02:39:06;;;;;;;25.60;14.77;;;;;;;10.71;100.00;100683.94;5028025;28;20421;-58
2023/03/18 02:41:34;;;;;;;25.77;15.13;;;;;;;10.66;100.00;100688.91;5020542;28;20109;-58
2023/03/18 02:44:00;;;;;;;24.52;15.65;;;;;;;10.61;100.00;100687.56;5024031;28;20037;-58
2023/03/18 02:46:29;;;;;;;27.45;15.55;;;;;;;10.65;100.00;100684.59;5028166;28;20034;-58
2023/03/18 02:48:57;;;;;;;29.27;16.40;;;;;;;10.62;100.00;100680.47;5031345;28;20119;-57
2023/03/18 02:51:24;;;;;;;27.77;16.23;;;;;;;10.59;100.00;100686.91;5025340;28;20038;-58
2023/03/18 02:53:53;;;;;;;25.50;16.08;;;;;;;10.58;100.00;100687.91;5029281;28;20104;-58
2023/03/18 02:56:18;;;;;;;27.85;16.35;;;;;;;10.57;100.00;100691.53;5023063;28;20041;-59
2023/03/18 02:58:44;;;;;;;27.75;16.20;;;;;;;10.56;100.00;100695.19;5027961;28;20022;-58
2023/03/18 03:01:10;;;;;;;28.35;17.15;;;;;;;10.57;100.00;100696.84;5026447;28;20061;-58
2023/03/18 03:03:36;;;;;;;29.77;16.70;;;;;;;10.54;100.00;100697.19;5034766;28;20029;-58
2023/03/18 03:06:02;;;;;;;27.67;16.70;;;;;;;10.54;100.00;100702.50;5032441;28;20547;-59
2023/03/18 03:08:28;;;;;;;28.25;17.45;;;;;;;10.53;100.00;100700.84;5014859;28;20129;-58
2023/03/18 03:10:53;;;;;;;26.45;17.00;;;;;;;10.52;100.00;100714.25;5023515;28;20072;-58
2023/03/18 03:13:21;;;;;;;26.27;16.35;;;;;;;10.48;100.00;100709.28;5023216;28;20477;-58
2023/03/18 03:15:47;;;;;;;30.02;17.30;;;;;;;10.49;100.00;100715.41;5029033;28;20042;-58
2023/03/18 03:18:13;;;;;;;27.65;16.67;;;;;;;10.48;100.00;100724.34;5032905;28;20025;-58
2023/03/18 03:20:39;;;;;;;29.42;17.20;;;;;;;10.48;100.00;100719.06;5018144;28;20040;-58
2023/03/18 03:23:11;;;;;;;26.67;16.80;;;;;;;10.46;100.00;100721.03;5019472;28;20030;-58
2023/03/18 03:25:37;;;;;;;27.33;17.30;;;;;;;10.48;100.00;100716.41;5027925;28;20392;-58
2023/03/18 03:28:03;;;;;;;29.98;17.88;;;;;;;10.45;100.00;100719.38;5026240;28;20028;-59
2023/03/18 03:30:29;;;;;;;28.70;17.88;;;;;;;10.41;100.00;100718.03;5028189;28;20500;-60
2023/03/18 03:32:55;;;;;;;27.45;17.95;;;;;;;10.41;100.00;100718.84;5037118;28;20033;-59
2023/03/18 03:35:22;;;;;;;30.33;18.00;;;;;;;10.41;100.00;100723.31;5026387;28;20075;-58
2023/03/18 03:37:47;;;;;;;24.95;17.48;;;;;;;10.39;100.00;100726.13;5026446;28;20018;-58
2023/03/18 03:40:16;;;;;;;29.10;17.50;;;;;;;10.39;100.00;100714.69;5018865;28;20026;-58
2023/03/18 03:42:41;;;;;;;30.52;17.65;;;;;;;10.40;100.00;100721.66;5023017;28;20116;-58
2023/03/18 03:45:07;;;;;;;28.33;18.05;;;;;;;10.41;100.00;100720.69;5020510;28;20108;-59
2023/03/18 03:47:33;;;;;;;27.05;17.55;;;;;;;10.40;100.00;100721.66;5027445;28;20115;-58
2023/03/18 03:49:58;;;;;;;27.48;17.50;;;;;;;10.41;100.00;100723.31;5040671;28;20041;-58
2023/03/18 03:52:24;;;;;;;27.23;17.60;;;;;;;10.41;100.00;100731.28;5034638;28;20116;-58
2023/03/18 03:54:49;;;;;;;30.35;18.52;;;;;;;10.42;100.00;100727.63;5041105;28;20028;-58
2023/03/18 03:57:15;;;;;;;28.50;18.02;;;;;;;10.42;100.00;100730.28;5026972;28;20037;-58
2023/03/18 03:59:41;;;;;;;28.23;17.85;;;;;;;10.42;100.00;100732.94;5036444;28;20105;-58
2023/03/18 04:02:06;;;;;;;30.15;17.95;;;;;;;10.40;100.00;100733.09;5022705;28;20427;-58
2023/03/18 04:04:32;;;;;;;28.17;18.60;;;;;;;10.40;100.00;100732.28;5036705;28;20060;-58
2023/03/18 04:06:57;;;;;;;30.27;18.75;;;;;;;10.39;100.00;100730.59;5034371;28;20047;-60
2023/03/18 04:09:22;;;;;;;29.38;18.05;;;;;;;10.40;100.00;100732.28;5029899;28;20106;-59
2023/03/18 04:11:48;;;;;;;30.15;19.05;;;;;;;10.40;100.00;100737.56;5023725;28;20032;-58
2023/03/18 04:14:13;;;;;;;29.30;18.42;;;;;;;10.41;100.00;100741.88;5025743;28;20108;-59
2023/03/18 04:16:39;;;;;;;29.55;18.02;;;;;;;10.40;100.00;100732.28;5038055;28;20037;-58
2023/03/18 04:19:06;;;;;;;28.10;18.80;;;;;;;10.40;100.00;100742.88;5022239;28;20738;-58
2023/03/18 04:21:31;;;;;;;30.15;18.90;;;;;;;10.39;100.00;100730.59;5031774;28;20385;-58
2023/03/18 04:23:56;;;;;;;27.02;17.92;;;;;;;10.40;100.00;100732.28;5033139;28;20034;-58
2023/03/18 04:26:22;;;;;;;28.55;19.10;;;;;;;10.36;100.00;100735.22;5033157;28;20040;-58
2023/03/18 04:28:47;;;;;;;32.20;18.90;;;;;;;10.37;100.00;100741.38;5037043;28;20029;-59
2023/03/18 04:31:13;;;;;;;27.63;18.65;;;;;;;10.35;100.00;100741.53;5027756;28;20136;-57
2023/03/18 04:33:39;;;;;;;28.50;18.38;;;;;;;10.34;100.00;100739.88;5025742;28;20041;-59
2023/03/18 04:36:05;;;;;;;31.05;19.17;;;;;;;10.33;100.00;100740.03;5042305;28;20036;-58
2023/03/18 04:38:30;;;;;;;28.08;18.73;;;;;;;10.33;100.00;100738.22;5034725;28;20032;-58
2023/03/18 04:40:55;;;;;;;28.25;18.50;;;;;;;10.32;100.00;100746.34;5041444;28;20041;-58
2023/03/18 04:43:21;;;;;;;27.73;19.05;;;;;;;10.30;100.00;100753.59;5021374;28;20064;-59
2023/03/18 04:45:47;;;;;;;28.92;19.75;;;;;;;10.32;100.00;100763.06;5034747;28;20033;-58
2023/03/18 04:48:12;;;;;;;27.80;19.08;;;;;;;10.30;100.00;100765.03;5024703;28;20052;-58
2023/03/18 04:50:37;;;;;;;30.52;19.80;;;;;;;10.31;100.00;100765.88;5032699;28;20037;-58
2023/03/18 04:53:03;;;;;;;30.63;19.25;;;;;;;10.28;100.00;100763.53;5027424;28;20033;-58
2023/03/18 04:55:28;;;;;;;30.98;19.65;;;;;;;10.28;100.00;100756.44;5027283;28;20634;-58
2023/03/18 04:57:54;;;;;;;29.27;19.13;;;;;;;10.28;100.00;100772.34;5025976;28;20105;-57
2023/03/18 05:00:21;;;;;;;31.80;19.70;;;;;;;10.25;100.00;100770.00;5041934;28;20033;-58
2023/03/18 05:02:47;;;;;;;29.88;19.42;;;;;;;10.27;100.00;100778.59;5024102;28;20040;-58
2023/03/18 05:05:13;;;;;;;29.88;20.20;;;;;;;10.25;100.00;100767.34;5030573;28;20018;-58
2023/03/18 05:07:39;;;;;;;29.08;19.42;;;;;;;10.24;100.00;100773.63;5022442;28;20488;-59
2023/03/18 05:10:08;;;;;;;28.67;20.15;;;;;;;10.26;100.00;100778.78;5027066;28;20388;-58
2023/03/18 05:12:35;;;;;;;29.90;19.58;;;;;;;10.23;100.00;100779.94;5023194;28;20025;-60
2023/03/18 05:15:00;;;;;;;30.58;19.38;;;;;;;10.22;100.00;100778.28;5022197;28;20552;-58
2023/03/18 05:17:26;;;;;;;28.50;19.55;;;;;;;10.21;100.00;100780.09;5022408;28;20101;-58
2023/03/18 05:19:52;;;;;;;29.30;20.13;;;;;;;10.22;100.00;100772.97;5028098;28;20022;-58
2023/03/18 05:22:19;;;;;;;32.22;19.75;;;;;;;10.18;100.00;100771.63;5022782;28;20512;-58
2023/03/18 05:24:45;;;;;;;30.77;19.23;;;;;;;10.19;100.00;100767.97;5029023;28;20028;-58
2023/03/18 05:27:13;;;;;;;28.75;18.88;;;;;;;10.15;100.00;100751.56;5037637;28;20128;-60
2023/03/18 05:29:39;;;;;;;27.70;18.20;;;;;;;10.15;100.00;100756.88;5028527;28;20060;-58
2023/03/18 05:32:06;;;;;;;29.27;19.50;;;;;;;10.14;100.00;100764.97;5023945;28;20018;-59
2023/03/18 05:34:36;;;;;;;27.17;18.73;;;;;;;10.15;100.00;100759.53;5023118;28;20033;-58
2023/03/18 05:37:07;;;;;;;30.58;19.48;;;;;;;10.13;100.00;100755.38;5031046;28;20069;-58
2023/03/18 05:39:32;;;;;;;29.40;18.90;;;;;;;10.13;100.00;100750.06;5030601;28;20033;-58
2023/03/18 05:41:59;;;;;;;28.27;18.10;;;;;;;10.12;100.00;100759.84;5028289;28;20052;-58
2023/03/18 05:44:24;;;;;;;27.67;18.52;;;;;;;10.11;100.00;100765.31;5026437;28;20444;-58
2023/03/18 05:46:51;;;;;;;28.63;18.63;;;;;;;10.10;100.00;100769.78;5031854;28;20032;-59
2023/03/18 05:49:18;;;;;;;27.58;17.90;;;;;;;10.11;100.00;100781.22;5025168;28;20042;-59
2023/03/18 05:51:43;;;;;;;29.00;18.35;;;;;;;10.10;100.00;100790.97;5025644;28;20021;-60
2023/03/18 05:54:09;;;;;;;27.08;18.25;;;;;;;10.08;100.00;100793.78;5027140;28;20473;-58
2023/03/18 05:56:35;;;;;;;28.13;18.50;;;;;;;10.07;100.00;100792.13;5029563;28;20436;-58
2023/03/18 05:59:00;;;;;;;26.98;18.30;;;;;;;10.05;100.00;100796.75;5031268;28;20041;-59
2023/03/18 06:01:26;;;;;;;29.48;19.08;;;;;;;10.03;100.00;100801.41;5026287;28;20034;-58
2023/03/18 06:03:52;;;;;;;26.98;18.35;;;;;;;10.03;100.00;100800.56;5032706;28;20389;-58
2023/03/18 06:06:18;;;;;;;25.80;17.85;;;;;;;10.01;100.00;100810.50;5021527;28;20374;-58
2023/03/18 06:08:44;;;;;;;27.83;18.25;;;;;;;10.00;100.00;100812.28;5023473;28;20048;-58
2023/03/18 06:11:09;;;;;;;26.85;17.58;;;;;;;9.99;100.00;100810.63;5027467;28;20022;-59
2023/03/18 06:13:35;;;;;;;28.00;17.92;;;;;;;9.94;100.00;100802.34;5022727;28;20144;-58
2023/03/18 06:16:00;;;;;;;27.02;18.13;;;;;;;9.92;100.00;100799.84;5021555;28;20080;-59
2023/03/18 06:18:26;;;;;;;28.70;18.08;;;;;;;9.92;100.00;100799.84;5018287;28;20116;-59
2023/03/18 06:20:52;;;;;;;26.27;17.90;;;;;;;9.91;100.00;100802.63;5016848;28;20053;-58
2023/03/18 06:23:18;;;;;;;26.67;17.60;;;;;;;9.89;100.00;100809.91;5023218;28;20373;-59
2023/03/18 06:25:45;;;;;;;29.48;17.90;;;;;;;9.90;100.00;100811.56;5026482;28;20116;-58
2023/03/18 06:28:11;;;;;;;27.50;17.65;;;;;;;9.89;100.00;100801.97;5034130;28;20036;-59
2023/03/18 06:30:37;;;;;;;25.52;17.25;;;;;;;9.90;100.00;100800.97;5028799;28;20467;-58
2023/03/18 06:33:03;;;;;;;24.83;17.17;;;;;;;9.89;100.00;100809.91;5027599;28;20030;-59
2023/03/18 06:35:30;;;;;;;26.35;17.20;;;;;;;9.89;100.00;100812.56;5034134;28;20471;-59
2023/03/18 06:37:56;;;;;;;27.88;17.25;;;;;;;9.90;100.00;100806.28;5040710;28;20381;-60
2023/03/18 06:40:23;;;;;;;24.77;16.88;;;;;;;9.89;100.00;100816.06;5025725;28;20028;-58
2023/03/18 06:42:49;;;;;;;27.80;17.20;;;;;;;9.92;100.00;100820.22;5036389;28;20030;-58
2023/03/18 06:45:14;;;;;;;26.70;17.23;;;;;;;9.96;100.00;100826.84;5025982;28;20516;-58
2023/03/18 06:47:39;;;;;;;25.23;17.23;;;;;;;9.98;100.00;100827.53;5023857;28;20029;-58
2023/03/18 06:50:05;;;;;;;26.90;17.25;;;;;;;9.98;100.00;100824.88;5032106;28;20088;-58
2023/03/18 06:52:31;;;;;;;25.05;17.10;;;;;;;10.00;100.00;100827.34;5029090;28;20059;-58
2023/03/18 06:54:56;;;;;;;24.27;16.83;;;;;;;10.02;100.00;100831.50;5030416;28;20048;-58
2023/03/18 06:57:22;;;;;;;26.77;17.23;;;;;;;10.01;100.00;100835.16;5017510;28;20033;-61
2023/03/18 06:59:48;;;;;;;25.38;17.63;;;;;;;10.01;100.00;100835.16;5024813;28;20068;-58
2023/03/18 07:02:14;;;;;;;27.67;18.95;;;;;;;10.03;100.00;100833.19;5031889;28;20037;-58
2023/03/18 07:04:39;;;;;;;27.08;17.65;;;;;;;10.01;100.00;100829.84;5036465;28;20033;-58
2023/03/18 07:07:06;;;;;;;28.88;18.48;;;;;;;10.04;100.00;100840.16;5020283;28;20492;-54
2023/03/18 07:09:32;;;;;;;27.30;18.30;;;;;;;10.06;100.00;100838.16;5021475;28;20036;-62
2023/03/18 07:11:58;;;;;;;27.88;18.35;;;;;;;10.06;100.00;100842.63;5031637;28;20029;-60
2023/03/18 07:14:23;;;;;;;27.08;18.40;;;;;;;10.08;100.00;100849.41;5029031;28;20523;-61
2023/03/18 07:16:48;;;;;;;24.02;17.92;;;;;;;10.08;100.00;100848.59;5023817;28;20120;-61
2023/03/18 07:19:14;;;;;;;27.23;17.80;;;;;;;10.12;100.00;100849.13;5025116;28;20047;-61
2023/03/18 07:21:41;;;;;;;26.17;17.98;;;;;;;10.13;100.00;100864.03;5027492;28;20030;-62
2023/03/18 07:24:07;;;;;;;27.90;18.45;;;;;;;10.16;100.00;100858.41;5036314;28;20053;-61
2023/03/18 07:26:33;;;;;;;26.13;18.02;;;;;;;10.15;100.00;100851.44;5024840;28;20060;-61
2023/03/18 07:28:58;;;;;;;29.60;17.92;;;;;;;10.18;100.00;100859.09;5030894;28;20060;-61
2023/03/18 07:31:24;;;;;;;26.50;17.83;;;;;;;10.20;100.00;100865.03;5039088;28;20465;-61
2023/03/18 07:33:49;;;;;;;25.83;17.98;;;;;;;10.23;100.00;100865.56;5035415;28;20037;-62
2023/03/18 07:36:15;;;;;;;24.60;17.85;;;;;;;10.25;100.00;100862.75;5030794;28;20458;-61
2023/03/18 07:38:41;;;;;;;26.85;17.98;;;;;;;10.31;100.00;100866.59;5028421;28;20036;-61
2023/03/18 07:41:06;;;;;;;25.17;16.90;;;;;;;10.34;100.00;100872.41;5042609;28;20032;-62
2023/03/18 07:43:33;;;;;;;25.17;17.77;;;;;;;10.31;100.00;100867.41;5030422;28;20116;-61
2023/03/18 07:45:59;;;;;;;25.23;17.60;;;;;;;10.46;100.00;100885.41;5022951;28;20033;-58
2023/03/18 07:48:24;;;;;;;26.23;17.95;;;;;;;10.46;100.00;100890.72;5036909;28;20049;-58
2023/03/18 07:50:49;;;;;;;24.45;16.10;;;;;;;10.65;100.00;100883.50;5032819;28;20462;-59
2023/03/18 07:53:15;;;;;;;23.38;16.58;;;;;;;10.60;100.00;100890.09;5027815;28;20030;-58
2023/03/18 07:55:41;;;;;;;21.92;16.38;;;;;;;10.63;100.00;100896.91;5020469;28;20643;-58
2023/03/18 07:58:07;;;;;;;23.90;16.60;;;;;;;10.68;100.00;100901.72;5033452;28;20044;-58
2023/03/18 08:00:33;;;;;;;24.23;16.23;;;;;;;10.72;100.00;100889.81;5031286;28;20029;-58
2023/03/18 08:02:58;;;;;;;23.85;15.65;;;;;;;10.75;100.00;100897.44;5035423;28;20588;-58
2023/03/18 08:05:24;;;;;;;21.90;15.65;;;;;;;10.81;100.00;100894.13;5019141;28;20049;-58
2023/03/18 08:07:49;;;;;;;21.38;13.77;;;;;;;10.86;100.00;100886.53;5026847;28;20385;-59
2023/03/18 08:10:15;;;;;;;20.20;14.05;;;;;;;10.89;100.00;100880.91;5024532;28;20025;-59
2023/03/18 08:12:41;;;;;;;20.77;13.82;;;;;;;10.94;100.00;100876.91;5029289;28;20022;-58
2023/03/18 08:15:08;;;;;;;17.42;13.32;;;;;;;11.00;100.00;100877.09;5035744;28;20110;-58
2023/03/18 08:17:33;;;;;;;19.65;12.45;;;;;;;11.07;100.00;100871.13;5030283;28;20060;-59
2023/03/18 08:19:58;;;;;;;18.02;12.82;;;;;;;11.12;100.00;100874.97;5026622;28;20030;-59
2023/03/18 08:22:24;;;;;;;17.52;11.32;;;;;;;11.24;99.13;100871.97;5028292;28;20470;-58
2023/03/18 08:24:51;;;;;;;17.27;11.27;;;;;;;11.25;99.03;100873.66;5027085;28;20032;-58
2023/03/18 08:27:17;;;;;;;17.67;11.98;;;;;;;11.26;99.94;100870.00;5028003;28;20037;-59
2023/03/18 08:29:42;;;;;;;17.42;11.20;;;;;;;11.34;99.68;100877.97;5026267;28;20396;-59
2023/03/18 08:32:08;;;;;;;16.15;11.40;;;;;;;11.42;99.75;100879.78;5025258;28;20086;-59
2023/03/18 08:34:34;;;;;;;15.95;10.95;;;;;;;11.49;99.01;100880.78;5019030;28;20038;-58
2023/03/18 08:37:00;;;;;;;15.68;10.32;;;;;;;11.56;98.64;100883.63;5021574;28;20163;-59
2023/03/18 08:39:25;;;;;;;15.70;10.50;;;;;;;11.64;98.75;100888.09;5024413;28;20095;-58
2023/03/18 08:41:51;;;;;;;16.10;10.32;;;;;;;11.68;97.75;100884.09;5021965;28;20026;-59
2023/03/18 08:44:16;;;;;;;15.55;10.63;;;;;;;11.75;97.06;100890.38;5029721;28;20037;-59
2023/03/18 08:46:42;;;;;;;15.93;10.68;;;;;;;11.80;97.23;100892.56;5024822;28;20565;-59
2023/03/18 08:49:09;;;;;;;15.32;10.75;;;;;;;11.85;96.16;100900.84;5039109;28;20475;-59
2023/03/18 08:51:34;;;;;;;17.13;10.20;;;;;;;11.90;95.76;100903.81;5037673;28;20025;-59
2023/03/18 08:53:59;;;;;;;17.02;10.70;;;;;;;11.89;96.04;100901.34;5041938;28;20101;-59
2023/03/18 08:56:26;;;;;;;16.95;10.32;;;;;;;11.93;94.98;100903.50;5033731;28;20163;-59
2023/03/18 08:58:51;;;;;;;15.75;9.75;;;;;;;11.91;95.79;100900.19;5028685;28;20030;-59
2023/03/18 09:01:18;;;;;;;16.58;10.45;;;;;;;11.89;94.94;100902.16;5029379;28;20024;-59
2023/03/18 09:03:44;;;;;;;13.38;9.43;;;;;;;11.88;94.69;100900.50;5040165;28;20024;-59
2023/03/18 09:06:09;;;;;;;15.32;10.27;;;;;;;11.96;96.30;100895.19;5041655;28;20528;-58
2023/03/18 09:08:35;;;;;;;17.88;11.20;;;;;;;12.04;96.20;100901.50;5028452;28;20040;-59
2023/03/18 09:11:01;;;;;;;16.40;10.90;;;;;;;12.06;95.67;100902.16;5022038;28;20095;-58
2023/03/18 09:13:26;;;;;;;17.60;10.15;;;;;;;12.13;94.88;100911.09;5022674;28;20040;-59
2023/03/18 09:15:52;;;;;;;15.52;9.98;;;;;;;12.21;94.51;100911.09;5026891;28;20659;-59
2023/03/18 09:18:18;;;;;;;15.15;9.73;;;;;;;12.27;94.78;100911.41;5037611;28;20048;-59
2023/03/18 09:20:44;;;;;;;14.73;9.38;;;;;;;12.26;93.02;100912.41;5032353;28;20034;-59
2023/03/18 09:23:11;;;;;;;15.93;10.27;;;;;;;12.29;94.18;100896.94;5028283;28;20025;-59
2023/03/18 09:25:36;;;;;;;15.63;9.80;;;;;;;12.29;94.40;100906.75;5030576;28;20034;-58
2023/03/18 09:28:02;;;;;;;13.60;9.32;;;;;;;12.26;93.55;100915.06;5040839;28;20484;-59
2023/03/18 09:30:28;;;;;;;15.20;9.50;;;;;;;12.24;93.68;100913.41;5026786;28;20068;-59
2023/03/18 09:32:55;;;;;;;13.77;9.60;;;;;;;12.28;93.37;100910.44;5032032;28;20485;-58
2023/03/18 09:35:21;;;;;;;14.50;9.15;;;;;;;12.34;92.85;100910.56;5024063;28;20038;-59
2023/03/18 09:37:47;;;;;;;13.52;8.63;;;;;;;12.47;93.62;100910.03;5030934;28;20500;-59
2023/03/18 09:40:20;;;;;;;12.85;8.48;;;;;;;12.57;93.26;100919.59;5026129;28;20036;-59
2023/03/18 09:43:28;;;;;;;13.05;8.30;;;;;;;12.70;91.83;100903.09;5033552;28;20175;-59
2023/03/18 09:46:12;;;;;;;12.23;7.93;;;;;;;12.84;91.74;100905.03;5017904;28;20061;-58
2023/03/18 09:48:50;;;;;;;12.30;7.05;;;;;;;12.97;91.01;100901.78;5031155;28;20049;-59
2023/03/18 09:51:23;;;;;;;14.43;6.70;;;;;;;13.01;88.67;100916.41;5029545;28;22209;-59
2023/03/18 09:53:57;;;;;;;11.75;6.30;;;;;;;13.08;87.33;100911.19;5029268;28;20048;-59
2023/03/18 09:56:28;;;;;;;12.15;6.20;;;;;;;13.18;88.46;100910.97;5022068;28;20500;-59
2023/03/18 09:59:02;;;;;;;11.88;6.35;;;;;;;13.25;87.51;100905.75;5032143;28;20401;-59
2023/03/18 10:01:30;;;;;;;10.13;5.70;;;;;;;13.26;85.95;100913.56;5026499;28;20017;-59
2023/03/18 10:04:14;;;;;;;11.63;5.80;;;;;;;13.37;85.34;100903.53;5024048;28;20515;-61
2023/03/18 10:06:43;;;;;;;12.88;6.63;;;;;;;13.41;84.61;100902.97;5022287;28;20084;-61
2023/03/18 10:09:18;;;;;;;11.80;5.57;;;;;;;13.42;84.02;100917.13;5021858;28;20097;-59
2023/03/18 10:11:46;;;;;;;12.25;5.28;;;;;;;13.44;82.82;100909.78;5021442;28;20454;-58
2023/03/18 10:14:40;;;;;;;9.07;5.38;;;;;;;13.55;84.03;100905.88;5024072;28;20546;-59
2023/03/18 10:17:21;;;;;;;10.23;5.88;;;;;;;13.64;83.32;100914.66;5034483;28;20025;-60
2023/03/18 10:19:56;;;;;;;9.98;5.07;;;;;;;13.68;82.62;100910.63;5030803;28;20025;-59
2023/03/18 10:22:24;;;;;;;7.30;4.82;;;;;;;13.81;82.35;100910.81;5018788;28;20032;-59
2023/03/18 10:25:17;;;;;;;10.13;5.57;;;;;;;13.90;82.09;100916.06;5038403;28;20076;-59
2023/03/18 10:28:21;;;;;;;10.00;5.13;;;;;;;13.91;81.91;100920.41;5020591;28;20033;-59
2023/03/18 10:31:02;;;;;;;8.60;4.40;;;;;;;13.95;78.26;100917.19;5029830;28;20030;-59
2023/03/18 10:33:45;;;;;;;7.65;4.28;;;;;;;13.93;79.96;100913.06;5026907;28;20100;-59
2023/03/18 10:36:12;;;;;;;;;;;;;;;14.02;82.36;100906.63;5021854;28;20032;-59
2023/03/18 10:38:47;;;;;;;7.57;4.50;;;;;;;14.11;79.96;100905.53;5028320;28;19971;-59
2023/03/18 10:41:21;;;;;;;8.00;4.38;;;;;;;14.23;79.05;100902.41;5029912;28;20025;-59
2023/03/18 10:43:49;;;;;;;9.07;4.55;;;;;;;14.25;77.10;100905.69;5028606;28;20037;-59
2023/03/18 10:46:17;;;;;;;9.52;4.60;;;;;;;14.35;78.34;100906.25;5028355;28;20061;-59
2023/03/18 10:48:49;;;;;;;8.57;4.05;;;;;;;14.34;77.16;100898.44;5032059;28;20046;-59
2023/03/18 10:51:35;;;;;;;8.60;3.83;;;;;;;14.33;76.76;100902.97;5018604;28;20485;-59
2023/03/18 10:54:31;;;;;;;6.60;3.70;;;;;;;14.26;74.40;100894.00;5020404;28;20656;-59
2023/03/18 10:56:56;;;;;;;6.88;3.30;;;;;;;14.15;72.64;100891.84;5021373;28;20110;-59
2023/03/18 10:59:24;;;;;;;8.43;3.40;;;;;;;14.12;74.01;100891.19;5035271;28;20100;-59
2023/03/18 11:01:58;;;;;;;7.10;3.10;;;;;;;14.10;74.18;100897.69;5032642;28;20056;-59
2023/03/18 11:04:27;;;;;;;8.48;3.15;;;;;;;14.07;74.18;100893.56;5034299;28;20022;-59
2023/03/18 11:07:01;;;;;;;9.52;2.95;;;;;;;14.07;74.74;100896.22;5035210;28;20017;-59
2023/03/18 11:09:33;;;;;;;6.97;3.10;;;;;;;14.08;74.64;100903.25;5028386;28;20118;-59
2023/03/18 11:12:04;;;;;;;7.60;3.40;;;;;;;14.08;74.36;100905.91;5030465;28;20037;-59